Time;durP1;ratioP1;P1;durP2;ratioP2;P2;SDS_P1;SDS_P2;PMS_P1;PMS_P2;Temp;Humidity;BMP_temperature;BMP_pressure;BME280_temperature;BME280_humidity;BME280_pressure;Samples;Min_cycle;Max_cycle;Signal;HPM_P1;HPM_P2
2024/02/08 00:01:16;;;;;;;10.30;3.45;;;;;;;;;;5029446;28;20091;-66
2024/02/08 00:03:42;;;;;;;11.55;3.88;;;;;;;;;;5029200;28;20037;-66
2024/02/08 00:06:07;;;;;;;5.93;3.08;;;;;;;;;;5029359;28;20042;-66
2024/02/08 00:08:35;;;;;;;8.43;3.40;;;;;;;;;;5029907;28;20029;-66
2024/02/08 00:11:02;;;;;;;16.27;4.03;;;;;;;;;;5029156;28;20040;-67
2024/02/08 00:13:28;;;;;;;8.45;2.92;;;;;;;;;;5029945;28;20037;-67
2024/02/08 00:15:53;;;;;;;9.13;2.22;;;;;;;;;;5029765;28;20043;-67
2024/02/08 00:18:19;;;;;;;5.45;2.85;;;;;;;;;;5029136;28;20458;-67
2024/02/08 00:20:44;;;;;;;12.05;2.88;;;;;;;;;;5029497;28;20084;-67
2024/02/08 00:23:09;;;;;;;6.43;3.25;;;;;;;;;;5030000;28;20041;-66
2024/02/08 00:25:35;;;;;;;7.53;3.45;;;;;;;;;;5029069;28;20042;-68
2024/02/08 00:28:00;;;;;;;6.78;3.33;;;;;;;;;;5029747;28;20090;-66
2024/02/08 00:30:25;;;;;;;8.60;4.25;;;;;;;;;;5029268;28;20060;-67
2024/02/08 00:32:51;;;;;;;10.40;4.57;;;;;;;;;;5028479;28;20041;-67
2024/02/08 00:35:19;;;;;;;8.68;3.55;;;;;;;;;;5028674;28;20022;-66
2024/02/08 00:37:48;;;;;;;7.55;4.13;;;;;;;;;;5029936;28;20044;-67
2024/02/08 00:40:14;;;;;;;19.60;5.03;;;;;;;;;;5037967;28;20106;-66
2024/02/08 00:42:41;;;;;;;13.57;4.78;;;;;;;;;;5029350;28;20087;-67
2024/02/08 00:45:07;;;;;;;12.77;4.45;;;;;;;;;;5028308;28;20029;-66
2024/02/08 00:47:32;;;;;;;13.90;4.05;;;;;;;;;;5031638;28;20037;-67
2024/02/08 00:49:58;;;;;;;11.73;4.57;;;;;;;;;;5032414;28;20037;-67
2024/02/08 00:52:23;;;;;;;15.25;4.90;;;;;;;;;;5033079;28;20033;-66
2024/02/08 00:54:50;;;;;;;17.05;4.80;;;;;;;;;;5032736;28;20033;-67
2024/02/08 00:57:15;;;;;;;17.02;4.47;;;;;;;;;;5032679;28;20052;-67
2024/02/08 00:59:40;;;;;;;15.00;4.00;;;;;;;;;;5032828;28;20159;-67
2024/02/08 01:02:06;;;;;;;10.13;4.13;;;;;;;;;;5032720;28;20041;-66
2024/02/08 01:04:35;;;;;;;13.60;4.13;;;;;;;;;;5030878;28;20050;-66
2024/02/08 01:07:01;;;;;;;9.52;4.00;;;;;;;;;;5032413;28;20083;-66
2024/02/08 01:09:26;;;;;;;8.65;3.53;;;;;;;;;;5032554;28;20053;-66
2024/02/08 01:11:52;;;;;;;13.82;4.22;;;;;;;;;;5030747;28;20090;-67
2024/02/08 01:14:21;;;;;;;13.60;3.78;;;;;;;;;;5029110;28;20468;-66
2024/02/08 01:16:47;;;;;;;15.18;3.95;;;;;;;;;;5035056;28;20443;-66
2024/02/08 01:19:14;;;;;;;16.85;4.90;;;;;;;;;;5030192;28;20545;-66
2024/02/08 01:21:40;;;;;;;8.15;4.00;;;;;;;;;;5030344;28;20168;-67
2024/02/08 01:24:05;;;;;;;13.70;4.72;;;;;;;;;;5031102;28;20477;-67
2024/02/08 01:26:31;;;;;;;13.45;4.07;;;;;;;;;;5031830;28;20492;-67
2024/02/08 01:28:56;;;;;;;11.32;3.90;;;;;;;;;;5032435;28;20041;-66
2024/02/08 01:31:22;;;;;;;10.65;3.67;;;;;;;;;;5033286;28;20069;-66
2024/02/08 01:33:50;;;;;;;7.47;3.50;;;;;;;;;;5032586;28;20040;-67
2024/02/08 01:36:16;;;;;;;14.45;3.80;;;;;;;;;;5031471;28;20071;-67
2024/02/08 01:38:42;;;;;;;11.88;4.70;;;;;;;;;;5032255;28;20446;-66
2024/02/08 01:41:09;;;;;;;9.88;3.80;;;;;;;;;;5031583;28;20037;-66
2024/02/08 01:43:35;;;;;;;9.13;3.03;;;;;;;;;;5028953;28;20034;-66
2024/02/08 01:46:02;;;;;;;12.45;3.88;;;;;;;;;;5031834;28;20048;-66
2024/02/08 01:48:27;;;;;;;12.68;4.25;;;;;;;;;;5028335;28;20118;-66
2024/02/08 01:50:56;;;;;;;15.13;3.97;;;;;;;;;;5031294;28;20163;-67
2024/02/08 01:53:31;;;;;;;14.63;4.25;;;;;;;;;;5029772;28;20116;-66
2024/02/08 01:56:02;;;;;;;14.05;4.25;;;;;;;;;;5014469;28;20120;-67
2024/02/08 01:58:28;;;;;;;19.55;4.25;;;;;;;;;;5022064;28;20042;-66
2024/02/08 02:00:55;;;;;;;9.82;4.32;;;;;;;;;;5030243;28;20022;-68
2024/02/08 02:03:23;;;;;;;18.13;5.40;;;;;;;;;;5030248;28;20033;-67
2024/02/08 02:05:49;;;;;;;10.93;4.75;;;;;;;;;;5030944;28;20531;-67
2024/02/08 02:08:26;;;;;;;16.80;4.18;;;;;;;;;;5031362;28;20041;-68
2024/02/08 02:11:08;;;;;;;10.88;4.30;;;;;;;;;;5031429;28;20034;-67
2024/02/08 02:13:36;;;;;;;20.65;5.25;;;;;;;;;;5029980;28;20464;-66
2024/02/08 02:16:01;;;;;;;7.70;3.17;;;;;;;;;;5029262;28;20135;-67
2024/02/08 02:18:27;;;;;;;15.98;4.88;;;;;;;;;;5025203;28;20072;-66
2024/02/08 02:20:54;;;;;;;15.23;4.78;;;;;;;;;;5027292;28;20080;-67
2024/02/08 02:23:19;;;;;;;18.73;4.35;;;;;;;;;;5031165;28;20129;-66
2024/02/08 02:25:48;;;;;;;13.10;5.10;;;;;;;;;;5029840;28;20188;-66
2024/02/08 02:28:15;;;;;;;14.52;4.57;;;;;;;;;;5028784;28;20037;-67
2024/02/08 02:30:44;;;;;;;12.60;3.97;;;;;;;;;;5029755;28;20046;-67
2024/02/08 02:33:12;;;;;;;16.75;4.93;;;;;;;;;;5031200;28;20041;-67
2024/02/08 02:36:14;;;;;;;12.20;4.18;;;;;;;;;;5029495;28;20087;-66
2024/02/08 02:38:41;;;;;;;13.02;4.75;;;;;;;;;;5023070;28;20134;-66
2024/02/08 02:41:06;;;;;;;11.75;4.82;;;;;;;;;;5029645;28;20067;-66
2024/02/08 02:43:34;;;;;;;14.52;4.50;;;;;;;;;;5029148;28;20036;-67
2024/02/08 02:45:59;;;;;;;14.45;4.40;;;;;;;;;;5030408;28;20118;-67
2024/02/08 02:48:25;;;;;;;14.98;4.55;;;;;;;;;;5030673;28;20065;-68
2024/02/08 02:50:51;;;;;;;16.92;4.57;;;;;;;;;;5030117;28;20120;-67
2024/02/08 02:53:17;;;;;;;18.67;4.72;;;;;;;;;;5028516;28;20049;-66
2024/02/08 02:55:43;;;;;;;17.58;4.93;;;;;;;;;;5030159;28;20037;-66
2024/02/08 02:58:09;;;;;;;16.80;5.47;;;;;;;;;;5012419;28;20063;-66
2024/02/08 03:00:34;;;;;;;14.80;4.30;;;;;;;;;;5029552;28;20045;-67
2024/02/08 03:03:12;;;;;;;20.55;4.95;;;;;;;;;;5030087;28;20578;-68
2024/02/08 03:05:46;;;;;;;12.20;4.88;;;;;;;;;;5029763;28;20536;-66
2024/02/08 03:08:11;;;;;;;17.67;5.40;;;;;;;;;;5029907;28;20435;-66
2024/02/08 03:10:42;;;;;;;24.27;6.47;;;;;;;;;;5029891;28;20029;-67
2024/02/08 03:13:10;;;;;;;16.58;5.45;;;;;;;;;;5030271;28;20108;-67
2024/02/08 03:15:38;;;;;;;13.57;5.65;;;;;;;;;;5029759;28;20079;-67
2024/02/08 03:18:04;;;;;;;16.13;5.32;;;;;;;;;;5029915;28;20040;-66
2024/02/08 03:20:30;;;;;;;15.68;6.10;;;;;;;;;;5027053;28;20037;-66
2024/02/08 03:22:59;;;;;;;16.42;6.72;;;;;;;;;;5028368;28;20091;-66
2024/02/08 03:25:25;;;;;;;18.00;5.32;;;;;;;;;;5031062;28;20083;-67
2024/02/08 03:27:51;;;;;;;16.05;5.40;;;;;;;;;;5028158;28;20116;-66
2024/02/08 03:30:22;;;;;;;14.60;6.28;;;;;;;;;;5015240;28;20056;-66
2024/02/08 03:32:52;;;;;;;19.33;7.05;;;;;;;;;;5029434;28;20088;-68
2024/02/08 03:35:25;;;;;;;14.73;6.88;;;;;;;;;;5029366;28;20087;-67
2024/02/08 03:37:54;;;;;;;22.55;7.43;;;;;;;;;;5012606;28;20041;-68
2024/02/08 03:40:21;;;;;;;14.57;7.97;;;;;;;;;;5028184;28;20087;-67
2024/02/08 03:42:49;;;;;;;20.08;7.60;;;;;;;;;;5030063;28;20116;-66
2024/02/08 03:45:18;;;;;;;16.40;7.43;;;;;;;;;;5029505;28;20034;-66
2024/02/08 03:47:45;;;;;;;16.77;7.50;;;;;;;;;;5029808;28;20046;-67
2024/02/08 03:50:11;;;;;;;18.15;7.60;;;;;;;;;;5029552;28;20033;-66
2024/02/08 03:52:37;;;;;;;18.58;7.35;;;;;;;;;;5029800;28;20029;-65
2024/02/08 03:55:08;;;;;;;13.43;7.60;;;;;;;;;;5016677;28;20573;-66
2024/02/08 03:57:36;;;;;;;28.92;10.05;;;;;;;;;;5029508;28;20638;-66
2024/02/08 04:00:03;;;;;;;13.93;7.22;;;;;;;;;;5029560;28;20038;-68
2024/02/08 04:02:28;;;;;;;14.70;6.90;;;;;;;;;;5029284;28;20044;-67
2024/02/08 04:04:53;;;;;;;11.15;6.40;;;;;;;;;;5029274;28;20041;-66
2024/02/08 04:07:22;;;;;;;14.27;7.93;;;;;;;;;;5029740;28;20037;-66
2024/02/08 04:09:50;;;;;;;10.98;5.95;;;;;;;;;;5028983;28;20033;-66
2024/02/08 04:53:43;;;;;;;10.93;5.40;;;;;;;;;;5032650;28;20495;-66
2024/02/08 04:56:10;;;;;;;9.43;5.18;;;;;;;;;;5031989;28;20061;-66
2024/02/08 04:58:40;;;;;;;8.85;2.97;;;;;;;;;;5032729;28;20171;-66
2024/02/08 05:01:08;;;;;;;10.43;5.18;;;;;;;;;;5014678;28;20033;-66
2024/02/08 05:03:37;;;;;;;9.75;5.15;;;;;;;;;;5032009;28;20025;-66
2024/02/08 05:06:14;;;;;;;2.92;1.88;;;;;;;;;;5032218;28;20045;-66
2024/02/08 05:08:44;;;;;;;10.10;5.15;;;;;;;;;;5031515;28;20048;-66
2024/02/08 05:11:12;;;;;;;10.40;5.00;;;;;;;;;;5032000;28;20040;-65
2024/02/08 05:13:44;;;;;;;11.02;5.15;;;;;;;;;;5032291;28;20143;-66
2024/02/08 05:16:16;;;;;;;9.60;4.10;;;;;;;;;;5032045;28;20045;-66
2024/02/08 05:18:46;;;;;;;6.80;3.50;;;;;;;;;;5032043;28;20037;-66
2024/02/08 05:21:13;;;;;;;17.52;3.33;;;;;;;;;;5031791;28;20044;-66
2024/02/08 05:23:39;;;;;;;4.80;3.03;;;;;;;;;;5032553;28;20024;-66
2024/02/08 05:26:11;;;;;;;13.63;5.10;;;;;;;;;;5031402;28;20041;-68
2024/02/08 05:28:43;;;;;;;5.55;2.75;;;;;;;;;;5032032;28;20040;-67
2024/02/08 05:31:08;;;;;;;6.72;3.25;;;;;;;;;;5009769;28;20386;-66
2024/02/08 05:33:34;;;;;;;7.43;3.85;;;;;;;;;;5028702;28;20034;-66
2024/02/08 05:36:06;;;;;;;7.80;4.18;;;;;;;;;;5031935;28;20049;-66
2024/02/08 05:38:37;;;;;;;14.50;4.53;;;;;;;;;;5031477;28;20038;-66
2024/02/08 05:41:05;;;;;;;8.98;4.43;;;;;;;;;;5031496;28;20076;-66
2024/02/08 05:43:31;;;;;;;7.18;3.72;;;;;;;;;;5031648;28;20453;-66
2024/02/08 05:45:57;;;;;;;8.98;4.50;;;;;;;;;;5030942;28;20112;-66
2024/02/08 05:48:27;;;;;;;11.80;3.60;;;;;;;;;;5031295;28;20539;-66
2024/02/08 05:50:57;;;;;;;8.98;4.07;;;;;;;;;;5031026;28;20037;-66
2024/02/08 05:53:24;;;;;;;4.93;2.92;;;;;;;;;;5031163;28;20049;-66
2024/02/08 05:55:52;;;;;;;0.10;0.10;;;;;;;;;;5034753;28;20679;-67
2024/02/08 05:58:19;;;;;;;4.32;2.70;;;;;;;;;;5035054;28;20615;-65
2024/02/08 06:00:52;;;;;;;5.47;2.67;;;;;;;;;;5032873;28;20029;-67
2024/02/08 06:03:27;;;;;;;1.90;1.25;;;;;;;;;;5026137;28;20496;-65
2024/02/08 06:06:06;;;;;;;3.30;1.58;;;;;;;;;;5032961;28;20125;-66
2024/02/08 06:08:39;;;;;;;2.92;1.63;;;;;;;;;;5031550;28;20041;-66
2024/02/08 06:11:19;;;;;;;3.83;1.70;;;;;;;;;;5029386;28;20059;-66
2024/02/08 06:13:54;;;;;;;3.05;1.27;;;;;;;;;;5030485;28;20634;-65
2024/02/08 06:16:45;;;;;;;2.25;1.27;;;;;;;;;;5027505;28;20029;-67
2024/02/08 06:19:06;;;;;;;2.10;1.08;;;;;;;;;;5014577;28;20080;-67
2024/02/08 06:21:40;;;;;;;8.77;1.30;;;;;;;;;;5030763;28;20069;-65
2024/02/08 06:26:55;;;;;;;3.30;1.40;;;;;;;;;;5030071;28;20033;-66
2024/02/08 06:29:49;;;;;;;1.67;0.73;;;;;;;;;;5030532;28;20041;-66
2024/02/08 06:32:33;;;;;;;1.67;0.93;;;;;;;;;;5027754;28;20040;-66
2024/02/08 06:35:11;;;;;;;;;;;;;;;;;;5030389;28;20072;-67
2024/02/08 06:37:44;;;;;;;1.63;0.60;;;;;;;;;;5029897;28;19991;-67
2024/02/08 06:40:37;;;;;;;1.05;0.70;;;;;;;;;;5012847;28;20053;-65
2024/02/08 07:37:25;;;;;;;1.70;1.17;;;;;;;;;;5026986;28;20048;-68
2024/02/08 07:39:54;;;;;;;3.55;1.70;;;;;;;;;;5028403;28;20492;-68
2024/02/08 07:42:29;;;;;;;3.92;1.70;;;;;;;;;;5029138;28;20041;-68
2024/02/08 07:45:06;;;;;;;4.90;1.52;;;;;;;;;;5028722;28;20022;-67
2024/02/08 07:47:33;;;;;;;0.10;0.10;;;;;;;;;;5029337;28;20112;-65
2024/02/08 07:50:04;;;;;;;0.10;0.10;;;;;;;;;;5029439;28;20499;-66
2024/02/08 07:52:45;;;;;;;19.95;1.70;;;;;;;;;;5029188;28;20037;-65
2024/02/08 07:55:14;;;;;;;3.40;1.58;;;;;;;;;;5029684;28;20029;-65
2024/02/08 07:57:57;;;;;;;11.77;1.77;;;;;;;;;;5032512;28;20049;-66
2024/02/08 08:03:23;;;;;;;11.07;1.40;;;;;;;;;;5024044;28;20072;-67
2024/02/08 08:05:56;;;;;;;1.35;0.65;;;;;;;;;;5032966;28;20033;-67
2024/02/08 08:08:24;;;;;;;3.80;1.77;;;;;;;;;;5016175;28;20037;-67
2024/02/08 08:10:56;;;;;;;0.85;0.60;;;;;;;;;;5033293;28;20045;-67
2024/02/08 08:13:50;;;;;;;1.50;0.95;;;;;;;;;;5033554;28;20037;-68
2024/02/08 08:17:08;;;;;;;1.67;1.48;;;;;;;;;;5025991;28;20042;-68
2024/02/08 08:18:58;;;;;;;2.25;1.05;;;;;;;;;;5021157;28;20052;-68
2024/02/08 08:21:29;;;;;;;7.75;1.63;;;;;;;;;;5033343;28;20030;-67
2024/02/08 08:24:02;;;;;;;2.42;1.33;;;;;;;;;;5025803;28;20044;-68
2024/02/08 08:26:39;;;;;;;2.10;1.17;;;;;;;;;;5032809;28;20357;-66
2024/02/08 08:29:16;;;;;;;11.90;1.70;;;;;;;;;;5031097;28;20041;-68
2024/02/08 08:31:51;;;;;;;3.03;1.27;;;;;;;;;;5031763;28;20041;-66
2024/02/08 08:42:39;;;;;;;2.85;1.27;;;;;;;;;;5028749;28;20047;-68
2024/02/08 08:45:09;;;;;;;5.93;1.95;;;;;;;;;;5030254;28;20037;-68
2024/02/08 08:47:37;;;;;;;0.47;0.40;;;;;;;;;;5031517;28;20112;-67
2024/02/08 08:50:17;;;;;;;4.82;1.55;;;;;;;;;;5030812;28;20029;-68
2024/02/08 08:52:47;;;;;;;3.20;1.20;;;;;;;;;;5031689;28;20037;-68
2024/02/08 08:55:17;;;;;;;1.33;0.68;;;;;;;;;;5031066;28;20045;-67
2024/02/08 08:57:47;;;;;;;4.13;1.60;;;;;;;;;;5030984;28;20095;-66
2024/02/08 09:00:20;;;;;;;5.15;1.67;;;;;;;;;;5028336;28;20029;-68
2024/02/08 09:02:50;;;;;;;0.95;0.80;;;;;;;;;;5030843;28;20428;-67
2024/02/08 09:05:21;;;;;;;0.95;0.70;;;;;;;;;;5030699;28;20652;-67
2024/02/08 09:07:46;;;;;;;4.68;1.73;;;;;;;;;;5021050;28;20033;-69
2024/02/08 09:10:14;;;;;;;4.20;1.70;;;;;;;;;;5020946;28;20084;-68
2024/02/08 09:12:50;;;;;;;3.17;1.25;;;;;;;;;;5027528;28;20046;-67
2024/02/08 09:15:19;;;;;;;1.00;0.73;;;;;;;;;;5026988;28;20051;-68
2024/02/08 09:17:52;;;;;;;4.15;1.80;;;;;;;;;;5026803;28;20049;-68
2024/02/08 09:20:22;;;;;;;2.95;1.65;;;;;;;;;;5007112;28;20044;-67
2024/02/08 09:22:52;;;;;;;4.07;2.25;;;;;;;;;;5028935;28;20045;-67
2024/02/08 09:25:20;;;;;;;8.70;2.00;;;;;;;;;;5027801;28;20087;-67
2024/02/08 09:27:47;;;;;;;4.53;1.90;;;;;;;;;;5016768;28;20052;-67
2024/02/08 09:30:15;;;;;;;1.92;1.13;;;;;;;;;;5032696;28;20038;-69
2024/02/08 09:32:44;;;;;;;2.55;1.30;;;;;;;;;;5024640;28;20049;-67
2024/02/08 09:35:13;;;;;;;5.32;2.00;;;;;;;;;;5022763;28;20519;-66
2024/02/08 09:37:45;;;;;;;2.42;1.05;;;;;;;;;;5028377;28;20041;-67
2024/02/08 09:40:20;;;;;;;6.10;1.75;;;;;;;;;;5027549;28;20046;-67
2024/02/08 09:42:54;;;;;;;4.82;1.52;;;;;;;;;;5029308;28;20123;-67
2024/02/08 09:48:00;;;;;;;3.13;1.50;;;;;;;;;;5028596;28;20077;-68
2024/02/08 09:50:36;;;;;;;2.88;1.20;;;;;;;;;;5024289;28;20119;-67
2024/02/08 09:53:19;;;;;;;2.42;1.17;;;;;;;;;;5023300;28;20546;-67
2024/02/08 09:55:48;;;;;;;2.67;1.10;;;;;;;;;;5026947;28;20041;-67
2024/02/08 09:58:30;;;;;;;2.78;1.10;;;;;;;;;;5028228;28;20052;-68
2024/02/08 10:01:14;;;;;;;2.53;1.20;;;;;;;;;;5027764;28;20034;-67
2024/02/08 10:03:44;;;;;;;2.83;1.00;;;;;;;;;;5021652;28;20058;-67
2024/02/08 10:06:13;;;;;;;2.25;1.20;;;;;;;;;;5010964;28;20069;-67
2024/02/08 10:08:51;;;;;;;2.53;1.25;;;;;;;;;;5027552;28;20037;-67
2024/02/08 10:11:27;;;;;;;2.95;1.35;;;;;;;;;;5027110;28;20117;-67
2024/02/08 10:13:56;;;;;;;4.38;1.92;;;;;;;;;;5029219;28;20124;-66
2024/02/08 10:16:43;;;;;;;4.80;1.63;;;;;;;;;;5028472;28;20044;-67
2024/02/08 10:19:24;;;;;;;3.65;1.40;;;;;;;;;;5026811;28;20764;-67
2024/02/08 10:22:00;;;;;;;2.83;1.42;;;;;;;;;;5026923;28;20092;-67
2024/02/08 10:26:19;;;;;;;2.47;1.20;;;;;;;;;;5027876;28;20041;-68
2024/02/08 10:27:35;;;;;;;3.05;1.30;;;;;;;;;;5024795;28;20045;-67
2024/02/08 10:30:07;;;;;;;2.33;1.20;;;;;;;;;;5027496;28;20037;-68
2024/02/08 10:32:33;;;;;;;2.35;1.25;;;;;;;;;;5026634;28;20041;-68
2024/02/08 10:35:15;;;;;;;3.50;1.23;;;;;;;;;;5030745;28;20040;-68
2024/02/08 10:38:08;;;;;;;1.58;0.90;;;;;;;;;;5026962;28;20043;-67
2024/02/08 10:40:34;;;;;;;4.68;1.50;;;;;;;;;;5024937;28;20133;-68
2024/02/08 10:43:16;;;;;;;4.45;1.50;;;;;;;;;;5010528;28;20052;-68
2024/02/08 10:45:47;;;;;;;3.78;1.20;;;;;;;;;;5011940;28;20384;-66
2024/02/08 10:48:13;;;;;;;4.72;1.20;;;;;;;;;;5026344;28;20029;-68
2024/02/08 10:50:41;;;;;;;2.33;1.13;;;;;;;;;;5027573;28;20041;-68
2024/02/08 10:53:16;;;;;;;2.40;1.00;;;;;;;;;;5027040;28;20544;-68
2024/02/08 10:55:52;;;;;;;2.92;1.00;;;;;;;;;;5027785;28;20511;-68
2024/02/08 10:58:27;;;;;;;2.72;1.38;;;;;;;;;;5027624;28;20048;-67
2024/02/08 11:03:42;;;;;;;2.92;1.13;;;;;;;;;;5001920;28;20048;-67
2024/02/08 11:06:26;;;;;;;1.83;0.82;;;;;;;;;;5024511;28;20077;-68
2024/02/08 11:09:09;;;;;;;1.75;0.88;;;;;;;;;;5027641;28;20503;-66
2024/02/08 11:11:37;;;;;;;9.23;1.42;;;;;;;;;;5027398;28;20045;-67
2024/02/08 11:14:08;;;;;;;2.47;1.08;;;;;;;;;;5024711;28;20648;-68
2024/02/08 11:16:35;;;;;;;2.72;1.15;;;;;;;;;;5027424;28;20072;-67
2024/02/08 11:19:04;;;;;;;2.90;1.08;;;;;;;;;;5026722;28;20041;-68
2024/02/08 11:21:43;;;;;;;2.75;1.40;;;;;;;;;;5025286;28;20045;-67
2024/02/08 11:24:10;;;;;;;7.07;1.30;;;;;;;;;;5027229;28;20088;-68
2024/02/08 11:26:35;;;;;;;1.63;0.88;;;;;;;;;;5009620;28;20052;-68
2024/02/08 11:29:18;;;;;;;2.33;1.05;;;;;;;;;;5026458;28;20045;-68
2024/02/08 11:31:46;;;;;;;1.57;0.83;;;;;;;;;;5026025;28;20119;-68
2024/02/08 11:34:15;;;;;;;1.27;0.70;;;;;;;;;;5010056;28;20033;-68
2024/02/08 11:36:52;;;;;;;1.90;0.95;;;;;;;;;;5025607;28;20037;-67
2024/02/08 11:39:30;;;;;;;1.27;0.80;;;;;;;;;;5027193;28;20041;-69
2024/02/08 11:42:05;;;;;;;1.83;0.90;;;;;;;;;;5010048;28;20132;-68
2024/02/08 11:44:37;;;;;;;1.60;0.70;;;;;;;;;;5010522;28;20037;-67
2024/02/08 11:47:18;;;;;;;2.05;0.90;;;;;;;;;;5023898;28;20131;-67
2024/02/08 11:49:52;;;;;;;1.30;0.60;;;;;;;;;;5031594;28;20041;-68
2024/02/08 11:52:19;;;;;;;1.25;0.70;;;;;;;;;;5019612;28;20038;-68
2024/02/08 11:54:45;;;;;;;2.50;0.68;;;;;;;;;;5026719;28;20036;-67
2024/02/08 11:57:13;;;;;;;1.55;0.77;;;;;;;;;;5026426;28;20041;-68
2024/02/08 11:59:39;;;;;;;1.77;0.80;;;;;;;;;;5026596;28;20492;-67
2024/02/08 12:02:10;;;;;;;1.55;0.70;;;;;;;;;;5021696;28;20048;-68
2024/02/08 12:04:36;;;;;;;2.45;0.95;;;;;;;;;;5008714;28;20037;-68
2024/02/08 12:07:07;;;;;;;2.33;0.90;;;;;;;;;;5022478;28;20665;-68
2024/02/08 12:09:33;;;;;;;2.45;0.88;;;;;;;;;;5023473;28;20041;-67
2024/02/08 12:11:58;;;;;;;1.52;0.55;;;;;;;;;;5026512;28;20041;-67
2024/02/08 12:14:27;;;;;;;3.20;0.88;;;;;;;;;;5023633;28;20121;-68
2024/02/08 12:16:59;;;;;;;0.82;0.50;;;;;;;;;;5027096;28;20033;-68
2024/02/08 12:19:27;;;;;;;1.65;0.40;;;;;;;;;;5025808;28;20041;-67
2024/02/08 12:22:03;;;;;;;0.85;0.52;;;;;;;;;;5024862;28;20049;-68
2024/02/08 12:24:31;;;;;;;0.32;0.25;;;;;;;;;;5023347;28;20046;-68
2024/02/08 12:27:05;;;;;;;1.00;0.50;;;;;;;;;;5025142;28;20080;-68
2024/02/08 12:29:34;;;;;;;0.85;0.50;;;;;;;;;;5024810;28;20048;-68
2024/02/08 12:32:00;;;;;;;0.68;0.40;;;;;;;;;;5014517;28;20172;-68
2024/02/08 12:34:32;;;;;;;0.47;0.30;;;;;;;;;;5024284;28;20128;-67
2024/02/08 12:37:06;;;;;;;2.17;0.52;;;;;;;;;;5025262;28;20033;-68
2024/02/08 12:39:38;;;;;;;2.80;0.30;;;;;;;;;;5014379;28;20038;-67
2024/02/08 12:42:05;;;;;;;0.50;0.38;;;;;;;;;;5022066;28;20038;-69
2024/02/08 12:44:34;;;;;;;1.05;0.47;;;;;;;;;;5029638;28;20037;-68
2024/02/08 12:47:01;;;;;;;1.00;0.45;;;;;;;;;;5029599;28;20509;-68
2024/02/08 12:49:26;;;;;;;0.57;0.40;;;;;;;;;;5027561;28;20049;-68
2024/02/08 12:51:59;;;;;;;0.63;0.30;;;;;;;;;;5032853;28;20025;-69
2024/02/08 12:54:25;;;;;;;0.50;0.40;;;;;;;;;;5025100;28;20030;-69
2024/02/08 12:57:07;;;;;;;0.40;0.30;;;;;;;;;;5022338;28;20081;-68
2024/02/08 12:59:33;;;;;;;0.20;0.20;;;;;;;;;;5024659;28;20872;-68
2024/02/08 13:02:08;;;;;;;0.38;0.30;;;;;;;;;;5027305;28;20029;-68
2024/02/08 13:04:43;;;;;;;0.13;0.13;;;;;;;;;;5027883;28;20401;-67
2024/02/08 13:07:09;;;;;;;0.50;0.38;;;;;;;;;;5028871;28;20041;-68
2024/02/08 13:09:35;;;;;;;0.88;0.40;;;;;;;;;;5027744;28;20033;-68
2024/02/08 13:12:14;;;;;;;0.30;0.30;;;;;;;;;;5026937;28;20049;-67
2024/02/08 13:14:56;;;;;;;2.33;0.30;;;;;;;;;;5027983;28;20046;-69
2024/02/08 13:17:26;;;;;;;0.20;0.20;;;;;;;;;;5026275;28;20090;-68
2024/02/08 13:19:56;;;;;;;0.77;0.50;;;;;;;;;;5029433;28;20144;-68
2024/02/08 13:22:24;;;;;;;0.35;0.30;;;;;;;;;;5028016;28;20076;-68
2024/02/08 13:24:51;;;;;;;0.85;0.47;;;;;;;;;;5027520;28;20190;-68
2024/02/08 13:27:24;;;;;;;0.70;0.40;;;;;;;;;;5026566;28;20067;-68
2024/02/08 13:29:53;;;;;;;2.00;0.60;;;;;;;;;;5028367;28;20497;-68
2024/02/08 13:32:19;;;;;;;1.95;0.65;;;;;;;;;;5024926;28;20037;-68
2024/02/08 13:34:44;;;;;;;0.40;0.28;;;;;;;;;;5024621;28;20512;-69
2024/02/08 13:37:15;;;;;;;1.30;0.60;;;;;;;;;;4994222;28;20043;-69
2024/02/08 13:39:44;;;;;;;1.10;0.52;;;;;;;;;;5019524;28;20034;-68
2024/02/08 13:42:10;;;;;;;0.85;0.55;;;;;;;;;;5016779;28;20051;-67
2024/02/08 13:44:36;;;;;;;2.05;0.65;;;;;;;;;;5026351;28;20079;-67
2024/02/08 13:47:04;;;;;;;1.40;0.73;;;;;;;;;;5011033;28;20663;-68
2024/02/08 13:49:33;;;;;;;0.90;0.60;;;;;;;;;;5024430;28;20061;-68
2024/02/08 13:51:59;;;;;;;2.40;1.10;;;;;;;;;;5023979;28;20048;-68
2024/02/08 13:54:27;;;;;;;2.00;1.20;;;;;;;;;;5022232;28;20091;-68
2024/02/08 13:56:56;;;;;;;2.80;1.50;;;;;;;;;;5024540;28;20120;-68
2024/02/08 13:59:22;;;;;;;3.47;1.67;;;;;;;;;;5022842;28;20436;-68
2024/02/08 14:01:47;;;;;;;3.95;2.85;;;;;;;;;;5023427;28;20041;-68
2024/02/08 14:04:20;;;;;;;5.55;3.42;;;;;;;;;;5026341;28;20045;-68
2024/02/08 14:06:55;;;;;;;6.20;3.40;;;;;;;;;;5011124;28;20034;-67
2024/02/08 14:09:25;;;;;;;5.25;2.58;;;;;;;;;;5025987;28;20274;-69
2024/02/08 14:11:55;;;;;;;4.40;2.40;;;;;;;;;;5028834;28;20116;-67
2024/02/08 14:14:30;;;;;;;4.20;2.75;;;;;;;;;;5023632;28;20104;-68
2024/02/08 14:16:56;;;;;;;3.47;2.20;;;;;;;;;;5028483;28;20033;-68
2024/02/08 14:19:36;;;;;;;4.82;2.50;;;;;;;;;;5029654;28;20042;-69
2024/02/08 14:22:07;;;;;;;3.80;2.17;;;;;;;;;;5009597;28;20539;-69
2024/02/08 14:24:36;;;;;;;8.25;3.13;;;;;;;;;;5017290;28;20059;-69
2024/02/08 14:27:05;;;;;;;5.28;3.28;;;;;;;;;;5019932;28;20037;-69
2024/02/08 14:29:35;;;;;;;6.70;3.17;;;;;;;;;;5024022;28;20048;-69
2024/02/08 14:32:04;;;;;;;5.05;2.70;;;;;;;;;;5024586;28;20436;-69
2024/02/08 14:34:35;;;;;;;3.60;2.10;;;;;;;;;;5023739;28;20041;-68
2024/02/08 14:37:04;;;;;;;4.30;2.88;;;;;;;;;;5024713;28;20119;-68
2024/02/08 14:39:33;;;;;;;3.50;2.05;;;;;;;;;;5027131;28;20539;-68
2024/02/08 14:42:03;;;;;;;4.38;2.20;;;;;;;;;;5027699;28;20045;-69
2024/02/08 14:44:31;;;;;;;3.10;1.73;;;;;;;;;;5011434;28;20048;-68
2024/02/08 14:46:58;;;;;;;3.60;2.08;;;;;;;;;;4999105;28;20041;-68
2024/02/08 14:49:24;;;;;;;5.22;3.17;;;;;;;;;;5023271;28;20128;-68
2024/02/08 14:51:50;;;;;;;14.98;7.60;;;;;;;;;;5021603;28;20112;-69
2024/02/08 14:54:19;;;;;;;14.25;8.30;;;;;;;;;;5016293;28;20053;-69
2024/02/08 14:56:45;;;;;;;8.02;4.72;;;;;;;;;;5023413;28;20122;-69
2024/02/08 14:59:13;;;;;;;6.20;4.20;;;;;;;;;;5024078;28;20029;-68
2024/02/08 15:01:39;;;;;;;3.55;2.25;;;;;;;;;;5027089;28;20499;-68
2024/02/08 15:04:17;;;;;;;6.43;3.33;;;;;;;;;;5025797;28;20037;-67
2024/02/08 15:07:06;;;;;;;6.97;3.30;;;;;;;;;;5026951;28;20480;-69
2024/02/08 15:12:10;;;;;;;7.13;3.50;;;;;;;;;;5027167;28;20471;-68
2024/02/08 15:14:36;;;;;;;7.10;3.60;;;;;;;;;;5026463;28;20048;-67
2024/02/08 15:17:08;;;;;;;5.40;3.20;;;;;;;;;;5027433;28;20045;-68
2024/02/08 15:19:46;;;;;;;5.05;2.88;;;;;;;;;;5022702;28;20065;-68
2024/02/08 15:24:56;;;;;;;7.55;2.78;;;;;;;;;;5027198;28;20057;-68
2024/02/08 15:27:31;;;;;;;7.47;3.22;;;;;;;;;;5025632;28;20034;-67
2024/02/08 15:30:15;;;;;;;7.20;3.38;;;;;;;;;;5026700;28;20484;-69
2024/02/08 15:35:36;;;;;;;6.32;3.50;;;;;;;;;;5018892;28;20037;-68
2024/02/08 15:40:47;;;;;;;7.13;3.70;;;;;;;;;;5027035;28;20069;-67
2024/02/08 15:43:15;;;;;;;6.15;3.50;;;;;;;;;;5027792;28;20079;-68
2024/02/08 15:45:44;;;;;;;5.45;3.08;;;;;;;;;;5028675;28;20044;-68
2024/02/08 15:48:14;;;;;;;8.45;3.63;;;;;;;;;;5010916;28;20056;-68
2024/02/08 15:50:42;;;;;;;6.00;3.05;;;;;;;;;;5024916;28;20060;-68
2024/02/08 15:53:16;;;;;;;5.63;3.08;;;;;;;;;;5027191;28;20508;-68
2024/02/08 15:55:42;;;;;;;12.63;3.92;;;;;;;;;;5019937;28;20049;-68
2024/02/08 15:58:19;;;;;;;7.95;3.35;;;;;;;;;;5026372;28;20049;-68
2024/02/08 16:03:39;;;;;;;6.13;2.78;;;;;;;;;;5024513;28;20514;-68
2024/02/08 16:06:41;;;;;;;6.60;3.25;;;;;;;;;;5026005;28;20042;-68
2024/02/08 16:09:01;;;;;;;7.10;3.97;;;;;;;;;;5027212;28;20219;-68
2024/02/08 16:11:30;;;;;;;13.65;5.22;;;;;;;;;;5026962;28;20041;-68
2024/02/08 16:14:03;;;;;;;9.77;4.45;;;;;;;;;;5009043;28;20736;-68
2024/02/08 16:16:32;;;;;;;12.15;3.90;;;;;;;;;;5024279;28;20521;-68
2024/02/08 16:19:20;;;;;;;12.35;5.13;;;;;;;;;;5026795;28;20065;-68
2024/02/08 16:21:45;;;;;;;14.25;4.82;;;;;;;;;;5018661;28;20037;-68
2024/02/08 16:24:17;;;;;;;9.00;2.80;;;;;;;;;;5027862;28;20092;-69
2024/02/08 16:26:49;;;;;;;11.82;3.38;;;;;;;;;;5028336;28;20033;-68
2024/02/08 16:29:20;;;;;;;5.95;2.70;;;;;;;;;;5027782;28;20033;-68
2024/02/08 16:31:54;;;;;;;7.18;2.60;;;;;;;;;;5028387;28;20197;-69
2024/02/08 16:34:25;;;;;;;6.40;2.55;;;;;;;;;;5027647;28;20061;-67
2024/02/08 16:36:52;;;;;;;7.35;2.78;;;;;;;;;;5028074;28;20068;-67
2024/02/08 16:41:59;;;;;;;6.43;2.30;;;;;;;;;;5028137;28;20040;-68
2024/02/08 16:44:50;;;;;;;9.35;2.30;;;;;;;;;;5027157;28;20037;-69
2024/02/08 16:47:27;;;;;;;28.30;8.13;;;;;;;;;;5026666;28;20033;-68
2024/02/08 16:49:53;;;;;;;29.77;11.82;;;;;;;;;;5028444;28;20048;-68
2024/02/08 16:52:21;;;;;;;12.57;6.22;;;;;;;;;;5027541;28;20432;-67
2024/02/08 16:54:55;;;;;;;7.57;2.58;;;;;;;;;;5027594;28;20128;-68
2024/02/08 16:57:21;;;;;;;7.35;2.10;;;;;;;;;;5021003;28;20612;-67
2024/02/08 16:59:52;;;;;;;4.60;1.80;;;;;;;;;;5016385;28;20033;-68
2024/02/08 17:04:49;;;;;;;8.30;3.70;;;;;;;;;;5027118;28;20128;-67
2024/02/08 17:10:05;;;;;;;4.45;1.80;;;;;;;;;;5027684;28;20642;-68
2024/02/08 17:12:56;;;;;;;4.72;2.33;;;;;;;;;;5026864;28;20079;-68
2024/02/08 17:15:28;;;;;;;5.05;1.88;;;;;;;;;;5026823;28;20022;-67